Check out our new BloomSky Weather System.

Active alerts


No alerts


Thunder radar  blitzortung!


Rain radar more information rain snow radar


Visit our other weather sites:

Template documentation
and downloads

And another site



Weather Underground History page Text

Daily Summary for April 20, 2018 Units:  English    Metric   Both
« Previous Day
Next Day »
Daily Weekly Monthly Yearly Custom
  Current: High: Low: Average:
Temperature: 61.3 °F TemperatureF °F 52.0 °F 59.6 °F
Dew Point: 53.8 °F DewpointF °F 43.3 °F 48 °F
Humidity: 76 % Humidity % 52 % 66 %
Wind Speed: 2.0 mph WindSpeedMPH mph 0.0 mph 1.9 mph
Wind Gust: 6.0 mph WindSpeedGustMPH mph - -
Wind:East - - SE
Pressure: 30.10 in PressureIn in 30.08 in -
Precipitation: 0.00 in      
Historical Graphs
 
 
Tabular Data for April 20, 2018
Time Temperature Dew Point Pressure Wind Wind Speed Wind Gust Humidity Rainfall Rate (Hourly)
TemperatureF °F DewpointF °F PressureIn in Calm     Humidity % HourlyPrecipIn in
00:02 59.5 °F 48.2 °F 30.21 in Calm   2.0 mph 66 % 0.00 in
00:07 59.4 °F 48.4 °F 30.20 in Calm   2.0 mph 67 % 0.00 in
00:12 59.0 °F 48.0 °F 30.20 in Calm   1.0 mph 67 % 0.00 in
00:16 58.6 °F 48.2 °F 30.20 in Calm   1.0 mph 68 % 0.00 in
00:22 58.6 °F 48.2 °F 30.19 in Calm   1.0 mph 68 % 0.00 in
00:27 58.5 °F 48.4 °F 30.19 in Calm   2.0 mph 69 % 0.00 in
00:32 58.5 °F 48.4 °F 30.20 in Calm   2.0 mph 69 % 0.00 in
00:33 58.5 °F 48.4 °F 30.20 in Calm   2.0 mph 69 % 0.00 in
00:38 58.5 °F 48.4 °F 30.21 in Calm   2.0 mph 69 % 0.00 in
00:43 58.5 °F 48.4 °F 30.21 in Calm   2.0 mph 69 % 0.00 in
00:48 58.3 °F 48.2 °F 30.21 in Calm   2.0 mph 69 % 0.00 in
00:53 58.3 °F 48.6 °F 30.22 in Calm   2.0 mph 70 % 0.00 in
00:58 58.3 °F 48.6 °F 30.21 in Calm   1.0 mph 70 % 0.00 in
01:03 58.1 °F 48.4 °F 30.21 in Calm   1.0 mph 70 % 0.00 in
01:08 58.1 °F 48.4 °F 30.21 in Calm   1.0 mph 70 % 0.00 in
01:13 58.3 °F 48.6 °F 30.21 in Calm   2.0 mph 70 % 0.00 in
01:18 58.1 °F 48.4 °F 30.21 in NNE 1.0 mph 2.0 mph 70 % 0.00 in
01:23 57.9 °F 48.2 °F 30.20 in Calm   2.0 mph 70 % 0.00 in
01:28 57.9 °F 48.6 °F 30.20 in ENE 2.0 mph 2.0 mph 71 % 0.00 in
01:33 57.7 °F 48.4 °F 30.20 in Calm   3.0 mph 71 % 0.00 in
01:38 57.7 °F 48.4 °F 30.20 in Calm   3.0 mph 71 % 0.00 in
01:43 57.6 °F 48.2 °F 30.21 in Calm   3.0 mph 71 % 0.00 in
01:48 57.6 °F 48.2 °F 30.20 in Calm   2.0 mph 71 % 0.00 in
01:53 57.4 °F 48.4 °F 30.20 in NNW 1.0 mph 2.0 mph 72 % 0.00 in
01:58 57.4 °F 48.4 °F 30.20 in Calm   2.0 mph 72 % 0.00 in
02:03 57.0 °F 48.0 °F 30.19 in Calm   2.0 mph 72 % 0.00 in
02:08 57.0 °F 48.4 °F 30.19 in Calm   3.0 mph 73 % 0.00 in
02:13 57.0 °F 48.4 °F 30.19 in NE 1.0 mph 3.0 mph 73 % 0.00 in
02:18 56.8 °F 48.2 °F 30.19 in Calm   3.0 mph 73 % 0.00 in
02:23 56.7 °F 48.0 °F 30.19 in Calm   3.0 mph 73 % 0.00 in
02:28 56.5 °F 48.0 °F 30.19 in NE 2.0 mph 2.0 mph 73 % 0.00 in
02:33 56.7 °F 48.0 °F 30.19 in NE 1.0 mph 4.0 mph 73 % 0.00 in
02:38 56.7 °F 48.0 °F 30.19 in Calm   4.0 mph 73 % 0.00 in
02:43 56.7 °F 47.7 °F 30.19 in Calm   4.0 mph 72 % 0.00 in
02:48 56.5 °F 47.5 °F 30.19 in North 1.0 mph 4.0 mph 72 % 0.00 in
02:53 56.5 °F 48.0 °F 30.19 in North 1.0 mph 4.0 mph 73 % 0.00 in
02:59 56.5 °F 48.0 °F 30.20 in Calm   4.0 mph 73 % 0.00 in
03:04 56.5 °F 48.0 °F 30.20 in NNW 1.0 mph 3.0 mph 73 % 0.00 in
03:08 56.5 °F 48.0 °F 30.19 in Calm   3.0 mph 73 % 0.00 in
03:13 56.7 °F 47.7 °F 30.19 in ENE 3.0 mph 4.0 mph 72 % 0.00 in
03:19 56.8 °F 47.8 °F 30.19 in NNE 2.0 mph 5.0 mph 72 % 0.00 in
03:24 56.8 °F 47.8 °F 30.19 in NE 5.0 mph 6.0 mph 72 % 0.00 in
03:29 56.7 °F 47.7 °F 30.19 in NNE 1.0 mph 6.0 mph 72 % 0.00 in
03:34 56.5 °F 48.0 °F 30.19 in Calm   6.0 mph 73 % 0.00 in
03:39 56.3 °F 47.8 °F 30.18 in NNW 2.0 mph 6.0 mph 73 % 0.00 in
03:44 56.1 °F 47.7 °F 30.19 in NNW 1.0 mph 5.0 mph 73 % 0.00 in
03:49 55.9 °F 47.8 °F 30.19 in ESE 3.0 mph 5.0 mph 74 % 0.00 in
03:54 55.9 °F 47.8 °F 30.20 in Calm   5.0 mph 74 % 0.00 in
03:59 55.8 °F 48.0 °F 30.20 in East 3.0 mph 5.0 mph 75 % 0.00 in
04:04 55.8 °F 47.7 °F 30.20 in Calm   5.0 mph 74 % 0.00 in
04:09 55.8 °F 47.7 °F 30.20 in NW 2.0 mph 5.0 mph 74 % 0.00 in
04:14 55.6 °F 47.5 °F 30.20 in Calm   5.0 mph 74 % 0.00 in
04:19 55.6 °F 47.8 °F 30.20 in ENE 4.0 mph 6.0 mph 75 % 0.00 in
04:24 55.6 °F 47.5 °F 30.20 in East 2.0 mph 6.0 mph 74 % 0.00 in
04:29 55.6 °F 47.5 °F 30.20 in Calm   7.0 mph 74 % 0.00 in
04:34 55.4 °F 47.3 °F 30.20 in East 4.0 mph 7.0 mph 74 % 0.00 in
04:39 55.4 °F 47.3 °F 30.20 in ESE 1.0 mph 7.0 mph 74 % 0.00 in
04:44 55.2 °F 47.1 °F 30.20 in ENE 2.0 mph 7.0 mph 74 % 0.00 in
04:49 55.0 °F 46.9 °F 30.19 in Calm   7.0 mph 74 % 0.00 in
04:54 54.9 °F 46.8 °F 30.19 in NNW 3.0 mph 5.0 mph 74 % 0.00 in
04:59 54.9 °F 46.8 °F 30.19 in Calm   11.0 mph 74 % 0.00 in
05:04 54.7 °F 46.9 °F 30.20 in NNE 3.0 mph 11.0 mph 75 % 0.00 in
05:09 54.5 °F 46.8 °F 30.21 in WNW 1.0 mph 13.0 mph 75 % 0.00 in
05:14 54.3 °F 46.6 °F 30.21 in East 1.0 mph 13.0 mph 75 % 0.00 in
05:19 54.1 °F 46.4 °F 30.22 in NW 3.0 mph 13.0 mph 75 % 0.00 in
05:24 54.1 °F 46.4 °F 30.22 in East 8.0 mph 10.0 mph 75 % 0.00 in
05:29 54.0 °F 46.2 °F 30.22 in NNW 1.0 mph 10.0 mph 75 % 0.00 in
05:34 54.0 °F 46.2 °F 30.22 in Calm   10.0 mph 75 % 0.00 in
05:39 53.8 °F 46.0 °F 30.22 in Calm   10.0 mph 75 % 0.00 in
05:44 53.6 °F 45.9 °F 30.22 in NE 4.0 mph 9.0 mph 75 % 0.00 in
05:49 53.4 °F 45.7 °F 30.22 in ENE 4.0 mph 6.0 mph 75 % 0.00 in
05:54 53.4 °F 46.0 °F 30.22 in Calm   6.0 mph 76 % 0.00 in
05:59 53.2 °F 45.9 °F 30.22 in Calm   6.0 mph 76 % 0.00 in
06:04 53.1 °F 45.7 °F 30.23 in Calm   6.0 mph 76 % 0.00 in
06:09 53.1 °F 45.3 °F 30.23 in NE 1.0 mph 4.0 mph 75 % 0.00 in
06:14 53.1 °F 45.3 °F 30.23 in South 1.0 mph 6.0 mph 75 % 0.00 in
06:19 52.9 °F 45.1 °F 30.23 in ENE 2.0 mph 6.0 mph 75 % 0.00 in
06:24 52.9 °F 45.1 °F 30.23 in ESE 2.0 mph 6.0 mph 75 % 0.00 in
06:34 52.5 °F 45.1 °F 30.23 in NW 1.0 mph 7.0 mph 76 % 0.00 in
06:39 52.3 °F 45.0 °F 30.23 in ENE 3.0 mph 7.0 mph 76 % 0.00 in
06:43 52.3 °F 45.0 °F 30.23 in Calm   7.0 mph 76 % 0.00 in
06:48 52.3 °F 45.0 °F 30.23 in SSE 1.0 mph 7.0 mph 76 % 0.00 in
06:53 52.3 °F 44.6 °F 30.23 in East 1.0 mph 8.0 mph 75 % 0.00 in
06:58 52.3 °F 44.6 °F 30.23 in North 2.0 mph 9.0 mph 75 % 0.00 in
07:03 52.2 °F 44.4 °F 30.24 in Calm   9.0 mph 75 % 0.00 in
07:08 52.2 °F 44.4 °F 30.24 in Calm   9.0 mph 75 % 0.00 in
07:13 52.0 °F 44.2 °F 30.25 in East 1.0 mph 3.0 mph 75 % 0.00 in
07:18 52.2 °F 44.4 °F 30.25 in ESE 1.0 mph 4.0 mph 75 % 0.00 in
07:23 52.2 °F 44.4 °F 30.25 in NNW 1.0 mph 4.0 mph 75 % 0.00 in
07:28 52.2 °F 44.1 °F 30.26 in SE 1.0 mph 4.0 mph 74 % 0.00 in
07:33 52.3 °F 44.2 °F 30.27 in NNW 3.0 mph 6.0 mph 74 % 0.00 in
07:38 52.5 °F 44.4 °F 30.26 in NNW 1.0 mph 6.0 mph 74 % 0.00 in
07:43 53.1 °F 44.6 °F 30.26 in ESE 5.0 mph 6.0 mph 73 % 0.00 in
07:48 53.6 °F 44.8 °F 30.25 in ESE 2.0 mph 6.0 mph 72 % 0.00 in
07:53 53.8 °F 44.2 °F 30.25 in ENE 3.0 mph 10.0 mph 70 % 0.00 in
07:59 53.6 °F 43.7 °F 30.25 in NE 3.0 mph 10.0 mph 69 % 0.00 in
08:04 53.2 °F 43.7 °F 30.25 in North 4.0 mph 13.0 mph 70 % 0.00 in
08:09 53.1 °F 43.5 °F 30.26 in East 5.0 mph 13.0 mph 70 % 0.00 in
08:14 53.1 °F 43.9 °F 30.26 in ENE 2.0 mph 13.0 mph 71 % 0.00 in
08:19 53.8 °F 44.2 °F 30.27 in North 1.0 mph 13.0 mph 70 % 0.00 in
08:24 54.3 °F 44.1 °F 30.26 in East 4.0 mph 10.0 mph 68 % 0.00 in
08:28 54.7 °F 43.9 °F 30.25 in NNW 3.0 mph 9.0 mph 67 % 0.00 in
08:34 54.9 °F 44.1 °F 30.25 in Calm   12.0 mph 67 % 0.00 in
08:39 54.9 °F 43.7 °F 30.25 in NNW 1.0 mph 12.0 mph 66 % 0.00 in
08:44 54.9 °F 44.1 °F 30.25 in ENE 4.0 mph 12.0 mph 67 % 0.00 in
08:49 54.9 °F 43.7 °F 30.25 in NW 4.0 mph 12.0 mph 66 % 0.00 in
08:54 55.0 °F 43.9 °F 30.26 in East 4.0 mph 9.0 mph 66 % 0.00 in
08:59 55.4 °F 44.6 °F 30.27 in SE 2.0 mph 8.0 mph 67 % 0.00 in
09:04 55.9 °F 44.4 °F 30.27 in NW 3.0 mph 8.0 mph 65 % 0.00 in
09:09 56.1 °F 43.7 °F 30.28 in ENE 1.0 mph 8.0 mph 63 % 0.00 in
09:14 56.3 °F 44.2 °F 30.27 in Calm   8.0 mph 64 % 0.00 in
09:19 56.5 °F 44.4 °F 30.27 in Calm   8.0 mph 64 % 0.00 in
09:24 56.5 °F 44.4 °F 30.27 in North 3.0 mph 6.0 mph 64 % 0.00 in
09:29 56.3 °F 44.2 °F 30.26 in NW 2.0 mph 5.0 mph 64 % 0.00 in
09:34 55.9 °F 43.9 °F 30.27 in North 2.0 mph 6.0 mph 64 % 0.00 in
09:39 55.9 °F 43.5 °F 30.27 in SE 2.0 mph 7.0 mph 63 % 0.00 in
09:44 55.8 °F 43.3 °F 30.26 in SE 2.0 mph 9.0 mph 63 % 0.00 in
09:49 55.8 °F 43.7 °F 30.25 in SE 3.0 mph 9.0 mph 64 % 0.00 in
09:54 55.8 °F 43.3 °F 30.25 in ENE 4.0 mph 10.0 mph 63 % 0.00 in
09:59 55.8 °F 43.7 °F 30.25 in ENE 6.0 mph 10.0 mph 64 % 0.00 in
10:04 55.8 °F 43.3 °F 30.25 in NE 3.0 mph 10.0 mph 63 % 0.00 in
10:09 55.8 °F 43.3 °F 30.26 in SE 2.0 mph 11.0 mph 63 % 0.00 in
10:14 55.9 °F 43.9 °F 30.26 in North 3.0 mph 11.0 mph 64 % 0.00 in
10:19 56.1 °F 44.1 °F 30.26 in NNE 2.0 mph 11.0 mph 64 % 0.00 in
10:24 56.1 °F 43.7 °F 30.27 in Calm   10.0 mph 63 % 0.00 in
10:29 56.5 °F 44.4 °F 30.27 in ENE 4.0 mph 10.0 mph 64 % 0.00 in
10:34 56.8 °F 43.9 °F 30.27 in ENE 2.0 mph 10.0 mph 62 % 0.00 in
10:39 56.8 °F 43.9 °F 30.27 in ENE 2.0 mph 10.0 mph 62 % 0.00 in
10:44 57.2 °F 45.9 °F 30.27 in ESE 3.0 mph 10.0 mph 66 % 0.00 in
10:49 58.5 °F 45.9 °F 30.27 in ESE 2.0 mph 10.0 mph 63 % 0.00 in
10:54 59.4 °F 45.9 °F 30.28 in Calm   8.0 mph 61 % 0.00 in
10:59 60.1 °F 46.2 °F 30.28 in ESE 1.0 mph 7.0 mph 60 % 0.00 in
11:04 60.4 °F 45.7 °F 30.28 in NE 1.0 mph 8.0 mph 58 % 0.00 in
11:09 60.4 °F 45.1 °F 30.28 in ENE 4.0 mph 8.0 mph 57 % 0.00 in
11:14 60.3 °F 45.5 °F 30.27 in SSE 1.0 mph 8.0 mph 58 % 0.00 in
11:19 60.6 °F 45.7 °F 30.28 in ESE 2.0 mph 6.0 mph 58 % 0.00 in
11:24 60.4 °F 45.1 °F 30.27 in ENE 4.0 mph 6.0 mph 57 % 0.00 in
11:29 60.4 °F 45.7 °F 30.28 in Calm   6.0 mph 58 % 0.00 in
11:34 61.0 °F 45.7 °F 30.28 in SE 6.0 mph 6.0 mph 57 % 0.00 in
11:39 60.6 °F 44.8 °F 30.27 in South 3.0 mph 7.0 mph 56 % 0.00 in
11:44 60.4 °F 44.2 °F 30.27 in East 1.0 mph 7.0 mph 55 % 0.00 in
11:49 60.4 °F 45.1 °F 30.27 in East 4.0 mph 9.0 mph 57 % 0.00 in
11:54 60.3 °F 44.1 °F 30.27 in Calm   9.0 mph 55 % 0.00 in
11:59 60.3 °F 44.1 °F 30.27 in NNE 1.0 mph 9.0 mph 55 % 0.00 in
12:04 60.4 °F 44.6 °F 30.27 in Calm   7.0 mph 56 % 0.00 in
12:09 60.6 °F 44.4 °F 30.26 in SE 4.0 mph 6.0 mph 55 % 0.00 in
12:14 60.6 °F 44.4 °F 30.26 in East 2.0 mph 7.0 mph 55 % 0.00 in
12:19 60.6 °F 44.8 °F 30.26 in ESE 1.0 mph 7.0 mph 56 % 0.00 in
12:24 60.8 °F 45.5 °F 30.25 in ENE 1.0 mph 7.0 mph 57 % 0.00 in
12:29 61.0 °F 45.1 °F 30.25 in ENE 3.0 mph 6.0 mph 56 % 0.00 in
12:34 61.0 °F 45.1 °F 30.25 in Calm   6.0 mph 56 % 0.00 in
12:39 61.2 °F 45.3 °F 30.24 in Calm   6.0 mph 56 % 0.00 in
12:44 61.3 °F 45.5 °F 30.24 in SSE 4.0 mph 6.0 mph 56 % 0.00 in
12:49 61.5 °F 46.2 °F 30.24 in SE 3.0 mph 6.0 mph 57 % 0.00 in
12:54 61.7 °F 45.3 °F 30.23 in SE 4.0 mph 7.0 mph 55 % 0.00 in
12:59 61.9 °F 46.4 °F 30.23 in NE 1.0 mph 7.0 mph 57 % 0.00 in
13:04 62.4 °F 47.5 °F 30.22 in ESE 2.0 mph 8.0 mph 58 % 0.00 in
13:09 62.6 °F 46.2 °F 30.22 in ESE 1.0 mph 8.0 mph 55 % 0.00 in
13:14 62.8 °F 46.4 °F 30.22 in ENE 1.0 mph 8.0 mph 55 % 0.00 in
13:19 62.8 °F 46.4 °F 30.23 in NNW 1.0 mph 7.0 mph 55 % 0.00 in
13:24 62.8 °F 45.3 °F 30.22 in SE 1.0 mph 7.0 mph 53 % 0.00 in
13:29 63.0 °F 46.9 °F 30.22 in ENE 2.0 mph 10.0 mph 56 % 0.00 in
13:34 63.9 °F 46.9 °F 30.22 in East 5.0 mph 10.0 mph 54 % 0.00 in
13:39 63.7 °F 47.3 °F 30.21 in SE 8.0 mph 10.0 mph 55 % 0.00 in
13:44 63.9 °F 46.4 °F 30.21 in ESE 4.0 mph 8.0 mph 53 % 0.00 in
13:49 63.7 °F 47.3 °F 30.21 in Calm   8.0 mph 55 % 0.00 in
13:54 63.7 °F 46.8 °F 30.20 in East 4.0 mph 8.0 mph 54 % 0.00 in
13:59 63.3 °F 46.4 °F 30.20 in ESE 2.0 mph 8.0 mph 54 % 0.00 in
14:04 63.3 °F 47.3 °F 30.20 in ENE 2.0 mph 10.0 mph 56 % 0.00 in
14:09 63.3 °F 46.9 °F 30.19 in East 4.0 mph 10.0 mph 55 % 0.00 in
14:14 63.3 °F 47.8 °F 30.19 in South 4.0 mph 10.0 mph 57 % 0.00 in
14:19 63.5 °F 47.5 °F 30.19 in SE 3.0 mph 9.0 mph 56 % 0.00 in
14:24 64.0 °F 47.5 °F 30.18 in NW 2.0 mph 9.0 mph 55 % 0.00 in
14:29 64.6 °F 48.9 °F 30.18 in South 3.0 mph 9.0 mph 57 % 0.00 in
14:34 64.6 °F 48.9 °F 30.18 in SE 2.0 mph 9.0 mph 57 % 0.00 in
14:39 65.1 °F 48.6 °F 30.17 in East 7.0 mph 9.0 mph 55 % 0.00 in
14:44 65.1 °F 48.6 °F 30.17 in ESE 2.0 mph 9.0 mph 55 % 0.00 in
14:49 65.1 °F 48.6 °F 30.17 in East 1.0 mph 7.0 mph 55 % 0.00 in
14:54 65.1 °F 49.1 °F 30.16 in SE 5.0 mph 7.0 mph 56 % 0.00 in
14:59 65.1 °F 49.1 °F 30.16 in East 3.0 mph 8.0 mph 56 % 0.00 in
15:04 65.5 °F 48.4 °F 30.16 in NNE 3.0 mph 8.0 mph 54 % 0.00 in
15:09 65.1 °F 48.6 °F 30.15 in Calm   10.0 mph 55 % 0.00 in
15:14 65.5 °F 48.4 °F 30.15 in SE 3.0 mph 10.0 mph 54 % 0.00 in
15:19 65.5 °F 48.9 °F 30.15 in ENE 6.0 mph 10.0 mph 55 % 0.00 in
15:24 65.5 °F 47.8 °F 30.15 in SE 4.0 mph 9.0 mph 53 % 0.00 in
15:30 65.5 °F 48.9 °F 30.14 in ENE 4.0 mph 9.0 mph 55 % 0.00 in
15:34 65.8 °F 49.3 °F 30.15 in East 3.0 mph 9.0 mph 55 % 0.00 in
15:39 65.8 °F 49.3 °F 30.15 in SSE 5.0 mph 8.0 mph 55 % 0.00 in
15:44 65.8 °F 48.7 °F 30.15 in SE 2.0 mph 10.0 mph 54 % 0.00 in
15:50 66.7 °F 50.0 °F 30.15 in East 3.0 mph 10.0 mph 55 % 0.00 in
15:54 67.1 °F 48.9 °F 30.14 in ESE 1.0 mph 10.0 mph 52 % 0.00 in
16:00 66.6 °F 48.4 °F 30.13 in SE 2.0 mph 7.0 mph 52 % 0.00 in
16:05 65.8 °F 48.7 °F 30.13 in East 1.0 mph 9.0 mph 54 % 0.00 in
16:10 65.8 °F 49.6 °F 30.13 in Calm   11.0 mph 56 % 0.00 in
16:15 66.2 °F 49.1 °F 30.14 in NE 1.0 mph 11.0 mph 54 % 0.00 in
16:20 66.0 °F 49.5 °F 30.13 in East 8.0 mph 11.0 mph 55 % 0.00 in
16:25 65.8 °F 49.3 °F 30.13 in SSE 1.0 mph 8.0 mph 55 % 0.00 in
16:30 66.0 °F 49.5 °F 30.13 in North 1.0 mph 8.0 mph 55 % 0.00 in
16:35 66.2 °F 49.6 °F 30.13 in SE 2.0 mph 8.0 mph 55 % 0.00 in
16:40 66.0 °F 49.8 °F 30.13 in East 2.0 mph 8.0 mph 56 % 0.00 in
16:45 66.4 °F 50.2 °F 30.13 in Calm   8.0 mph 56 % 0.00 in
16:50 66.6 °F 50.4 °F 30.12 in SSE 2.0 mph 8.0 mph 56 % 0.00 in
16:55 66.6 °F 49.8 °F 30.13 in Calm   6.0 mph 55 % 0.00 in
17:00 66.4 °F 50.2 °F 30.12 in NNW 4.0 mph 5.0 mph 56 % 0.00 in
17:05 66.2 °F 50.0 °F 30.13 in SE 1.0 mph 5.0 mph 56 % 0.00 in
17:10 66.4 °F 51.1 °F 30.12 in SE 1.0 mph 5.0 mph 58 % 0.00 in
17:15 66.2 °F 50.9 °F 30.12 in ESE 2.0 mph 5.0 mph 58 % 0.00 in
17:20 66.0 °F 50.9 °F 30.12 in SE 1.0 mph 6.0 mph 58 % 0.00 in
17:25 66.0 °F 50.9 °F 30.12 in Calm   7.0 mph 58 % 0.00 in
17:30 65.8 °F 50.7 °F 30.12 in SE 2.0 mph 7.0 mph 58 % 0.00 in
17:35 65.8 °F 51.1 °F 30.12 in SSE 3.0 mph 7.0 mph 59 % 0.00 in
17:40 65.7 °F 50.9 °F 30.12 in SE 1.0 mph 6.0 mph 59 % 0.00 in
17:45 65.7 °F 51.4 °F 30.12 in ESE 4.0 mph 6.0 mph 60 % 0.00 in
17:50 65.8 °F 51.1 °F 30.12 in East 3.0 mph 6.0 mph 59 % 0.00 in
17:55 65.7 °F 50.5 °F 30.12 in ESE 3.0 mph 7.0 mph 58 % 0.00 in
18:00 65.7 °F 51.4 °F 30.12 in ESE 2.0 mph 7.0 mph 60 % 0.00 in
18:05 65.7 °F 51.4 °F 30.12 in ESE 3.0 mph 8.0 mph 60 % 0.00 in
18:10 65.7 °F 50.9 °F 30.12 in ESE 2.0 mph 8.0 mph 59 % 0.00 in
18:15 65.7 °F 50.9 °F 30.12 in East 3.0 mph 8.0 mph 59 % 0.00 in
18:20 65.7 °F 50.9 °F 30.12 in SSE 4.0 mph 8.0 mph 59 % 0.00 in
18:25 65.7 °F 51.4 °F 30.12 in East 2.0 mph 8.0 mph 60 % 0.00 in
18:30 65.5 °F 51.3 °F 30.12 in SE 3.0 mph 5.0 mph 60 % 0.00 in
18:35 65.3 °F 51.1 °F 30.12 in ESE 1.0 mph 6.0 mph 60 % 0.00 in
18:40 65.1 °F 50.9 °F 30.11 in SSE 2.0 mph 9.0 mph 60 % 0.00 in
18:45 64.9 °F 51.1 °F 30.11 in ESE 2.0 mph 9.0 mph 61 % 0.00 in
18:50 64.9 °F 51.6 °F 30.11 in East 3.0 mph 9.0 mph 62 % 0.00 in
18:55 64.9 °F 51.6 °F 30.11 in SE 3.0 mph 6.0 mph 62 % 0.00 in
19:00 64.8 °F 51.4 °F 30.11 in ESE 1.0 mph 5.0 mph 62 % 0.00 in
19:05 64.8 °F 51.4 °F 30.11 in SE 2.0 mph 6.0 mph 62 % 0.00 in
19:10 64.6 °F 51.6 °F 30.11 in South 2.0 mph 6.0 mph 63 % 0.00 in
19:15 64.6 °F 52.2 °F 30.11 in East 2.0 mph 6.0 mph 64 % 0.00 in
19:20 64.4 °F 52.0 °F 30.11 in Calm   5.0 mph 64 % 0.00 in
19:25 64.2 °F 51.8 °F 30.11 in Calm   6.0 mph 64 % 0.00 in
19:30 64.0 °F 52.0 °F 30.10 in ESE 1.0 mph 6.0 mph 65 % 0.00 in
19:35 63.9 °F 52.3 °F 30.10 in ESE 1.0 mph 6.0 mph 66 % 0.00 in
19:40 63.9 °F 52.3 °F 30.10 in ESE 1.0 mph 4.0 mph 66 % 0.00 in
19:45 63.7 °F 52.5 °F 30.10 in SE 2.0 mph 5.0 mph 67 % 0.00 in
19:50 63.7 °F 53.2 °F 30.10 in Calm   8.0 mph 69 % 0.00 in
19:55 63.5 °F 53.6 °F 30.10 in SE 6.0 mph 8.0 mph 70 % 0.00 in
20:00 63.5 °F 54.0 °F 30.10 in ENE 8.0 mph 9.0 mph 71 % 0.00 in
20:05 63.3 °F 53.8 °F 30.10 in SE 3.0 mph 9.0 mph 71 % 0.00 in
20:10 63.1 °F 54.0 °F 30.10 in ESE 4.0 mph 9.0 mph 72 % 0.00 in
20:15 63.0 °F 54.1 °F 30.10 in South 3.0 mph 8.0 mph 73 % 0.00 in
20:20 63.0 °F 54.1 °F 30.10 in SE 6.0 mph 8.0 mph 73 % 0.00 in
20:25 62.8 °F 54.0 °F 30.10 in SSE 2.0 mph 8.0 mph 73 % 0.00 in
20:30 62.8 °F 54.3 °F 30.10 in Calm   8.0 mph 74 % 0.00 in
20:35 62.6 °F 54.1 °F 30.10 in SE 4.0 mph 8.0 mph 74 % 0.00 in
20:40 62.4 °F 54.0 °F 30.10 in SE 2.0 mph 6.0 mph 74 % 0.00 in
20:45 62.2 °F 54.1 °F 30.10 in ESE 1.0 mph 6.0 mph 75 % 0.00 in
20:50 62.2 °F 54.1 °F 30.09 in ESE 4.0 mph 6.0 mph 75 % 0.00 in
20:55 62.2 °F 54.5 °F 30.09 in East 3.0 mph 7.0 mph 76 % 0.00 in
21:00 62.1 °F 54.3 °F 30.09 in ESE 2.0 mph 7.0 mph 76 % 0.00 in
21:05 62.1 °F 54.3 °F 30.09 in SE 1.0 mph 7.0 mph 76 % 0.00 in
21:10 62.1 °F 54.0 °F 30.08 in SSW 5.0 mph 7.0 mph 75 % 0.00 in
21:15 62.1 °F 53.2 °F 30.08 in SSE 2.0 mph 8.0 mph 73 % 0.00 in
21:20 62.1 °F 53.2 °F 30.08 in SE 1.0 mph 8.0 mph 73 % 0.00 in
21:25 62.1 °F 52.9 °F 30.08 in SSE 3.0 mph 8.0 mph 72 % 0.00 in
21:30 62.1 °F 52.9 °F 30.08 in SE 2.0 mph 7.0 mph 72 % 0.00 in
21:35 62.1 °F 52.9 °F 30.09 in ESE 1.0 mph 7.0 mph 72 % 0.00 in
21:40 61.9 °F 53.1 °F 30.09 in ESE 1.0 mph 7.0 mph 73 % 0.00 in
21:45 61.9 °F 53.1 °F 30.09 in South 2.0 mph 7.0 mph 73 % 0.00 in
21:50 61.9 °F 53.1 °F 30.10 in Calm   7.0 mph 73 % 0.00 in
21:55 61.9 °F 53.4 °F 30.10 in East 2.0 mph 7.0 mph 74 % 0.00 in
22:00 61.9 °F 53.4 °F 30.10 in Calm   7.0 mph 74 % 0.00 in
22:05 61.7 °F 53.2 °F 30.10 in East 2.0 mph 7.0 mph 74 % 0.00 in
22:10 61.7 °F 53.2 °F 30.10 in SE 4.0 mph 8.0 mph 74 % 0.00 in
22:15 61.5 °F 53.6 °F 30.09 in East 5.0 mph 8.0 mph 75 % 0.00 in
22:20 61.5 °F 53.2 °F 30.09 in ESE 4.0 mph 8.0 mph 74 % 0.00 in
22:25 61.5 °F 53.6 °F 30.10 in ESE 1.0 mph 7.0 mph 75 % 0.00 in
22:30 61.5 °F 53.6 °F 30.10 in East 2.0 mph 6.0 mph 75 % 0.00 in
22:35 61.5 °F 53.6 °F 30.10 in ENE 3.0 mph 6.0 mph 75 % 0.00 in
22:40 61.5 °F 53.6 °F 30.10 in Calm   6.0 mph 75 % 0.00 in
22:45 61.5 °F 53.6 °F 30.10 in Calm   6.0 mph 75 % 0.00 in
22:50 61.3 °F 53.8 °F 30.10 in ESE 2.0 mph 5.0 mph 76 % 0.00 in
22:55 61.3 °F 53.8 °F 30.10 in East 1.0 mph 5.0 mph 76 % 0.00 in
23:00 61.3 °F 53.8 °F 30.10 in ESE 2.0 mph 6.0 mph 76 % 0.00 in
23:05 61.3 °F 53.8 °F 30.10 in East 2.0 mph 6.0 mph 76 % 0.00 in
Spring, Texas: Villages of Bridgestone
Compliments of Weather Underground - 2.75 mb

Script developed by  Jim McMurry - jmcmurry@mwt.net Adapted for the template by  Wim van der Kuil - Leuven-Template.eu

You find our weather info also at:

UK Metoffice

WeatherCloud

Weather Underground

Mid-South Weather Network

AWEKAS

Citizen Weather Observer Program (CWOP)

HAMweather, WeatherForYou, PWS Weather

Equipment we use:

Weather-station
Davis Vantage Vue

Weather-program
Meteohub

Weather-server
Debian 7.9 x86 (Guest)

Provider
DreamHost

Davis Vantage Vue

Meteohub

Debian 7.9 x86 (Guest)

DreamHost